Coleman, Canada
Current Conditions -  °F | °C
As of 6:00 AM on Wednesday 22 Oct 2014 (Local Time) from CZPC Reporting Station
Clear Clear  
Wind Chill: 38°   Ceiling: Unl
Heat Index: 46°   Visibility: 9mi
Dew Point: 28°   Wind: 23mph
Humidity: 50%   Direction: 260°W
Pressure: 29.85"   Gusts: 35mph
Location:  49.64°N, 114.5°W
Report Text: CZPC 221200Z AUTO 26020G30KT 9SM CLR 08/M02 A2985 RMK SLP117 DENSITY ALT 4000FT
Loading
Personal Weather Stations






























Interactive Weather Map
Tropical Storm Tracking
New forecast layout! Learn more

10-Day Weather Forecast

Advertisements
Track Severe Weather on mobile